Time;durP1;ratioP1;P1;durP2;ratioP2;P2;SDS_P1;SDS_P2;PMS_P1;PMS_P2;Temp;Humidity;BMP_temperature;BMP_pressure;BME280_temperature;BME280_humidity;BME280_pressure;Samples;Min_cycle;Max_cycle;Signal;HPM_P1;HPM_P2
2023/09/10 00:00:04;;;;;;;3.53;1.60;;;;;;;12.68;81.86;93445.19;5038922;28;20461;-78
2023/09/10 00:02:31;;;;;;;2.70;1.67;;;;;;;12.67;81.47;93451.38;5037873;28;20085;-79
2023/09/10 00:04:57;;;;;;;4.38;2.20;;;;;;;12.58;81.42;93446.72;5036219;28;20045;-79
2023/09/10 00:07:24;;;;;;;3.80;2.28;;;;;;;12.41;82.33;93455.81;5037720;28;20049;-79
2023/09/10 00:09:51;;;;;;;3.08;1.73;;;;;;;12.23;82.85;93438.53;5033945;28;20100;-79
2023/09/10 00:12:17;;;;;;;5.03;2.10;;;;;;;12.30;83.06;93443.63;5033246;28;20411;-79
2023/09/10 00:14:46;;;;;;;3.92;1.98;;;;;;;12.33;83.25;93448.38;5035355;28;20092;-79
2023/09/10 00:17:12;;;;;;;2.83;1.88;;;;;;;12.26;83.69;93448.44;5033375;28;20049;-79
2023/09/10 00:19:39;;;;;;;2.70;1.50;;;;;;;12.28;83.93;93450.81;5034842;28;20739;-79
2023/09/10 00:22:06;;;;;;;3.97;2.00;;;;;;;12.26;84.34;93451.00;5039559;28;20052;-79
2023/09/10 00:24:32;;;;;;;4.18;1.92;;;;;;;12.23;84.74;93448.06;5037568;28;20184;-78
2023/09/10 00:26:59;;;;;;;3.83;1.63;;;;;;;12.16;83.69;93459.22;5037587;28;20859;-79
2023/09/10 00:29:27;;;;;;;2.92;1.75;;;;;;;12.12;84.17;93452.94;5036012;28;20111;-78
2023/09/10 00:31:55;;;;;;;4.80;2.08;;;;;;;12.14;84.88;93450.91;5035326;28;20049;-79
2023/09/10 00:34:22;;;;;;;4.18;1.70;;;;;;;12.11;84.05;93447.97;5039068;28;20049;-79
2023/09/10 00:36:48;;;;;;;4.13;1.70;;;;;;;11.99;84.53;93443.50;5037255;28;20045;-79
2023/09/10 00:39:15;;;;;;;4.72;1.85;;;;;;;11.97;85.58;93439.56;5033358;28;20053;-79
2023/09/10 00:41:42;;;;;;;3.70;2.17;;;;;;;11.86;85.21;93452.13;5034251;28;20573;-79
2023/09/10 00:44:08;;;;;;;3.85;1.77;;;;;;;11.86;85.50;93454.69;5033118;28;20049;-79
2023/09/10 00:46:35;;;;;;;3.45;2.00;;;;;;;11.87;84.70;93451.16;5033267;28;20099;-78
2023/09/10 00:49:03;;;;;;;2.92;1.55;;;;;;;11.82;84.32;93439.91;5043446;28;20053;-78
2023/09/10 00:51:31;;;;;;;3.38;1.60;;;;;;;11.87;84.77;93440.84;5035000;28;20050;-82
2023/09/10 00:53:59;;;;;;;3.85;1.48;;;;;;;11.68;84.59;93437.44;5033467;28;20136;-83
2023/09/10 00:56:26;;;;;;;3.00;1.77;;;;;;;11.66;85.23;93438.66;5036819;28;20053;-83
2023/09/10 00:58:53;;;;;;;3.70;1.90;;;;;;;11.70;84.93;93453.44;5039867;28;20045;-80
2023/09/10 01:01:20;;;;;;;4.43;1.90;;;;;;;11.75;84.67;93445.88;5038738;28;20511;-79
2023/09/10 01:03:47;;;;;;;3.92;2.20;;;;;;;11.77;85.33;93454.19;5034952;28;20057;-79
2023/09/10 01:06:15;;;;;;;3.78;1.70;;;;;;;11.81;85.69;93451.19;5036713;28;20053;-79
2023/09/10 01:08:43;;;;;;;2.80;1.63;;;;;;;11.69;85.42;93443.38;5036749;28;20096;-82
2023/09/10 01:11:22;;;;;;;3.30;1.92;;;;;;;11.59;86.46;93438.69;5033543;28;20555;-81
2023/09/10 01:13:58;;;;;;;3.00;1.58;;;;;;;11.57;86.77;93440.69;5036040;28;20048;-81
2023/09/10 01:16:36;;;;;;;3.33;1.77;;;;;;;11.52;86.93;93443.88;5033037;28;20554;-82
2023/09/10 01:19:08;;;;;;;4.22;1.85;;;;;;;11.52;87.10;93440.53;5041749;28;20049;-81
2023/09/10 01:21:47;;;;;;;5.40;1.88;;;;;;;11.45;87.82;93425.94;5033526;28;20130;-81
2023/09/10 01:24:23;;;;;;;4.18;2.03;;;;;;;11.02;88.04;93419.69;5033724;28;20045;-83
2023/09/10 01:26:59;;;;;;;3.88;2.10;;;;;;;11.02;90.03;93432.53;5038660;28;20053;-81
2023/09/10 01:29:26;;;;;;;4.28;1.80;;;;;;;11.12;89.47;93439.00;5038408;28;20128;-81
2023/09/10 01:32:02;;;;;;;5.45;2.00;;;;;;;11.19;89.75;93444.91;5025820;28;20138;-83
2023/09/10 01:34:35;;;;;;;4.13;1.65;;;;;;;11.27;89.44;93431.00;5029282;28;20204;-82
2023/09/10 01:37:10;;;;;;;3.40;1.73;;;;;;;11.07;89.94;93442.22;5033316;28;20093;-82
2023/09/10 01:39:41;;;;;;;4.03;1.75;;;;;;;11.02;90.23;93437.66;5036226;28;20507;-81
2023/09/10 01:42:09;;;;;;;4.07;2.17;;;;;;;11.16;89.76;93446.09;5036576;28;20068;-81
2023/09/10 01:44:38;;;;;;;3.30;1.73;;;;;;;11.09;89.68;93422.22;5031928;28;20200;-80
2023/09/10 01:47:05;;;;;;;4.38;1.95;;;;;;;11.21;89.68;93448.06;5030085;28;20087;-82
2023/09/10 01:49:32;;;;;;;4.25;2.10;;;;;;;11.27;89.58;93449.81;5035137;28;20048;-80
2023/09/10 01:51:59;;;;;;;3.08;2.00;;;;;;;11.27;88.66;93454.94;5039429;28;20448;-80
2023/09/10 01:54:26;;;;;;;5.03;1.88;;;;;;;11.31;89.56;93450.16;5039932;28;20115;-80
2023/09/10 01:56:52;;;;;;;3.22;1.73;;;;;;;11.30;88.59;93449.38;5034857;28;20108;-79
2023/09/10 01:59:20;;;;;;;4.13;1.95;;;;;;;11.29;89.05;93450.38;5029345;28;20356;-79
2023/09/10 02:01:47;;;;;;;4.72;1.70;;;;;;;11.23;88.51;93453.78;5031071;28;20502;-79
2023/09/10 02:04:14;;;;;;;4.22;2.03;;;;;;;11.19;88.69;93443.13;5031814;28;20049;-80
2023/09/10 02:06:41;;;;;;;7.18;4.25;;;;;;;11.18;88.22;93454.41;5029594;28;20067;-80
2023/09/10 02:09:07;;;;;;;7.35;3.78;;;;;;;11.09;88.97;93450.50;5034923;28;20107;-81
2023/09/10 02:11:34;;;;;;;7.07;3.97;;;;;;;10.92;89.46;93430.41;5034638;28;20458;-80
2023/09/10 02:14:01;;;;;;;6.75;3.72;;;;;;;10.93;89.78;93451.78;5032669;28;20057;-80
2023/09/10 02:16:29;;;;;;;4.18;2.60;;;;;;;10.83;90.06;93453.00;5029549;28;20049;-80
2023/09/10 02:18:56;;;;;;;4.78;2.53;;;;;;;10.61;92.35;93459.41;5035791;28;20502;-80
2023/09/10 02:21:23;;;;;;;3.70;2.33;;;;;;;10.64;92.42;93456.44;5029648;28;20140;-79
2023/09/10 02:23:49;;;;;;;3.95;2.13;;;;;;;10.73;92.18;93454.44;5033591;28;20053;-80
2023/09/10 02:26:16;;;;;;;3.58;2.30;;;;;;;10.73;91.97;93439.03;5041457;28;20442;-80
2023/09/10 02:28:43;;;;;;;5.18;2.53;;;;;;;10.80;91.89;93453.38;5035320;28;20049;-80
2023/09/10 02:31:10;;;;;;;3.58;2.25;;;;;;;10.82;91.34;93448.84;5028255;28;20454;-80
2023/09/10 02:33:38;;;;;;;3.80;2.20;;;;;;;10.79;92.03;93453.63;5033029;28;20058;-79
2023/09/10 02:36:06;;;;;;;4.53;2.80;;;;;;;10.76;91.60;93449.69;5042327;28;20111;-80
2023/09/10 02:38:33;;;;;;;5.13;2.58;;;;;;;10.69;92.20;93457.41;5028271;28;20100;-81
2023/09/10 02:40:59;;;;;;;3.78;2.35;;;;;;;10.77;91.59;93458.16;5030545;28;20148;-81
2023/09/10 02:43:26;;;;;;;2.92;2.05;;;;;;;10.82;91.43;93451.44;5034807;28;20049;-82
2023/09/10 02:45:53;;;;;;;3.53;2.42;;;;;;;10.77;91.10;93451.25;5025620;28;20495;-82
2023/09/10 02:48:19;;;;;;;7.22;2.38;;;;;;;10.67;92.06;93464.53;5033179;28;20096;-81
2023/09/10 02:50:47;;;;;;;4.55;2.05;;;;;;;10.74;91.07;93451.66;5037643;28;20033;-82
2023/09/10 02:53:14;;;;;;;3.60;2.10;;;;;;;10.71;90.95;93456.41;5038894;28;20046;-82
2023/09/10 02:55:41;;;;;;;4.05;2.10;;;;;;;10.68;91.15;93447.31;5036371;28;20053;-82
2023/09/10 02:58:07;;;;;;;4.50;2.35;;;;;;;10.73;91.18;93444.16;5039192;28;20049;-80
2023/09/10 03:00:33;;;;;;;5.10;2.20;;;;;;;10.63;91.48;93434.31;5038247;28;20090;-80
2023/09/10 03:03:00;;;;;;;5.25;2.13;;;;;;;10.71;91.90;93451.25;5031871;28;20052;-80
2023/09/10 03:05:27;;;;;;;3.25;2.10;;;;;;;10.71;92.22;93449.50;5033331;28;20091;-80
2023/09/10 03:07:56;;;;;;;3.88;2.53;;;;;;;10.72;92.62;93457.97;5032398;28;20048;-79
2023/09/10 03:10:22;;;;;;;4.32;2.08;;;;;;;10.64;93.08;93448.75;5029373;28;20108;-79
2023/09/10 03:12:49;;;;;;;5.78;2.25;;;;;;;10.63;92.78;93453.09;5032107;28;20095;-80
2023/09/10 03:15:16;;;;;;;4.93;2.40;;;;;;;10.53;92.94;93461.22;5030446;28;20049;-80
2023/09/10 03:17:43;;;;;;;4.10;2.40;;;;;;;10.56;93.33;93462.59;5029086;28;20049;-79
2023/09/10 03:20:10;;;;;;;4.43;1.88;;;;;;;10.50;92.84;93461.63;5029653;28;20099;-78
2023/09/10 03:22:37;;;;;;;4.00;2.08;;;;;;;10.53;93.28;93456.09;5032033;28;20485;-79
2023/09/10 03:25:06;;;;;;;4.55;2.10;;;;;;;10.53;93.59;93465.56;5031968;28;20049;-78
2023/09/10 03:27:33;;;;;;;4.32;2.35;;;;;;;10.50;93.59;93471.09;5027583;28;20119;-79
2023/09/10 03:30:00;;;;;;;4.88;2.10;;;;;;;10.52;93.66;93469.13;5027213;28;20057;-78
2023/09/10 03:32:27;;;;;;;4.50;1.92;;;;;;;10.52;93.74;93466.56;5029335;28;20053;-78
2023/09/10 03:34:53;;;;;;;4.22;2.70;;;;;;;10.47;93.80;93471.50;5028660;28;20053;-79
2023/09/10 03:37:21;;;;;;;5.05;2.00;;;;;;;10.51;93.25;93478.59;5030669;28;20576;-79
2023/09/10 03:39:48;;;;;;;3.67;1.92;;;;;;;10.41;92.93;93473.88;5027177;28;20053;-78
2023/09/10 03:42:16;;;;;;;6.30;2.25;;;;;;;10.36;93.51;93478.81;5027726;28;20050;-79
2023/09/10 03:44:43;;;;;;;4.32;2.08;;;;;;;10.37;93.83;93471.91;5038343;28;20133;-79
2023/09/10 03:47:10;;;;;;;5.22;2.22;;;;;;;10.31;93.69;93470.16;5035599;28;20045;-81
2023/09/10 03:49:36;;;;;;;3.78;1.85;;;;;;;10.23;93.93;93464.22;5042702;28;20502;-81
2023/09/10 03:52:15;;;;;;;3.35;2.10;;;;;;;10.26;93.61;93479.25;5028294;28;20041;-81
2023/09/10 03:54:42;;;;;;;4.78;1.88;;;;;;;9.91;94.43;93442.75;5027323;28;20064;-81
2023/09/10 03:57:08;;;;;;;3.97;2.00;;;;;;;10.20;94.13;93471.53;5036053;28;20048;-81
2023/09/10 03:59:36;;;;;;;3.58;1.80;;;;;;;10.16;93.66;93484.78;5038582;28;20049;-81
2023/09/10 04:02:04;;;;;;;4.32;1.80;;;;;;;10.09;93.91;93470.38;5030635;28;20049;-80
2023/09/10 04:04:30;;;;;;;3.63;2.00;;;;;;;10.17;94.82;93485.56;5026912;28;20053;-80
2023/09/10 04:06:57;;;;;;;5.47;2.58;;;;;;;9.98;95.23;93469.19;5028812;28;20049;-80
2023/09/10 04:09:24;;;;;;;7.85;2.72;;;;;;;9.96;94.35;93461.69;5029944;28;20314;-79
2023/09/10 04:11:51;;;;;;;4.13;2.30;;;;;;;10.11;94.88;93489.72;5028795;28;20046;-79
2023/09/10 04:14:18;;;;;;;5.85;2.00;;;;;;;10.22;94.31;93490.09;5027373;28;20076;-78
2023/09/10 04:16:46;;;;;;;6.85;2.60;;;;;;;10.18;94.79;93488.94;5029695;28;20049;-79
2023/09/10 04:19:12;;;;;;;5.95;2.58;;;;;;;10.26;94.85;93486.94;5026087;28;20095;-78
2023/09/10 04:21:39;;;;;;;5.95;2.50;;;;;;;10.26;95.14;93497.22;5031457;28;20155;-79
2023/09/10 04:24:06;;;;;;;4.30;2.40;;;;;;;10.27;95.06;93495.41;5033223;28;20099;-77
2023/09/10 04:26:33;;;;;;;4.10;2.28;;;;;;;10.28;94.77;93504.72;5034846;28;20049;-78
2023/09/10 04:29:00;;;;;;;14.15;3.67;;;;;;;10.37;94.97;93500.16;5029418;28;20075;-77
2023/09/10 04:31:28;;;;;;;6.38;2.38;;;;;;;10.41;94.17;93496.97;5027141;28;21099;-78
2023/09/10 04:33:56;;;;;;;4.30;2.53;;;;;;;10.37;94.39;93500.94;5038355;28;20140;-78
2023/09/10 04:36:23;;;;;;;4.05;2.47;;;;;;;10.41;94.26;93501.31;5028419;28;20107;-78
2023/09/10 04:38:49;;;;;;;7.95;3.15;;;;;;;10.33;93.81;93484.38;5031238;28;20056;-78
2023/09/10 04:41:16;;;;;;;6.57;2.80;;;;;;;10.41;94.63;93491.84;5029074;28;20110;-77
2023/09/10 04:43:43;;;;;;;5.32;2.28;;;;;;;10.39;94.73;93496.41;5033044;28;20056;-78
2023/09/10 04:46:10;;;;;;;7.22;2.72;;;;;;;10.44;95.16;93498.38;5031515;28;20466;-78
2023/09/10 04:48:36;;;;;;;4.95;2.40;;;;;;;10.46;94.50;93488.69;5033374;28;20080;-79
2023/09/10 04:51:05;;;;;;;7.03;3.35;;;;;;;10.43;93.63;93505.28;5042904;28;20049;-79
2023/09/10 04:53:31;;;;;;;6.60;2.45;;;;;;;10.51;93.60;93493.25;5036217;28;20037;-79
2023/09/10 04:55:59;;;;;;;5.22;2.75;;;;;;;10.49;93.64;93498.56;5033085;28;20057;-80
2023/09/10 04:58:25;;;;;;;4.55;2.80;;;;;;;10.53;92.85;93499.75;5033209;28;20076;-80
2023/09/10 05:00:52;;;;;;;4.55;2.50;;;;;;;10.61;93.61;93513.34;5036690;28;20103;-79
2023/09/10 05:03:20;;;;;;;6.55;2.97;;;;;;;10.65;94.04;93499.91;5029985;28;20124;-79
2023/09/10 05:05:47;;;;;;;5.40;2.60;;;;;;;10.73;92.44;93505.81;5029679;28;20057;-79
2023/09/10 05:08:15;;;;;;;4.43;2.92;;;;;;;10.81;92.34;93508.16;5036481;28;20107;-79
2023/09/10 05:10:42;;;;;;;4.15;2.45;;;;;;;10.90;92.05;93501.00;5028821;28;20045;-79
2023/09/10 05:13:09;;;;;;;4.55;2.40;;;;;;;10.86;91.92;93489.53;5037188;28;20094;-80
2023/09/10 05:15:35;;;;;;;5.70;3.13;;;;;;;11.02;92.10;93501.94;5040630;28;20556;-80
2023/09/10 05:18:02;;;;;;;5.97;3.15;;;;;;;11.02;92.02;93504.50;5043818;28;20110;-80
2023/09/10 05:20:29;;;;;;;4.63;2.70;;;;;;;11.11;91.72;93509.41;5031883;28;20057;-80
2023/09/10 05:22:55;;;;;;;3.33;2.20;;;;;;;11.19;92.17;93509.97;5029640;28;20531;-80
2023/09/10 05:25:23;;;;;;;5.10;2.70;;;;;;;11.22;91.53;93496.69;5031728;28;20774;-81
2023/09/10 05:27:50;;;;;;;4.43;2.90;;;;;;;11.33;92.23;93502.97;5032148;28;20467;-81
2023/09/10 05:30:17;;;;;;;7.07;2.90;;;;;;;11.29;92.26;93493.31;5035431;28;20467;-80
2023/09/10 05:32:44;;;;;;;6.70;2.88;;;;;;;11.44;92.00;93514.38;5029202;28;20096;-80
2023/09/10 05:35:11;;;;;;;5.28;2.50;;;;;;;11.65;90.60;93512.47;5029674;28;20045;-80
2023/09/10 05:37:38;;;;;;;5.35;2.55;;;;;;;11.74;90.45;93518.94;5029985;28;20510;-80
2023/09/10 05:40:05;;;;;;;3.60;2.08;;;;;;;11.87;89.74;93505.19;5034629;28;20088;-80
2023/09/10 05:42:33;;;;;;;3.90;2.13;;;;;;;11.99;89.70;93512.25;5033833;28;20097;-79
2023/09/10 05:45:00;;;;;;;5.68;2.60;;;;;;;12.12;89.42;93516.50;5030613;28;20045;-81
2023/09/10 05:47:27;;;;;;;4.43;2.55;;;;;;;12.27;87.80;93504.09;5029704;28;20142;-81
2023/09/10 05:49:53;;;;;;;4.00;2.58;;;;;;;12.36;89.52;93511.56;5031180;28;20100;-80
2023/09/10 05:52:20;;;;;;;5.65;2.25;;;;;;;12.40;86.18;93507.53;5029407;28;20115;-80
2023/09/10 05:54:47;;;;;;;5.53;2.50;;;;;;;12.63;85.62;93517.22;5033020;28;20454;-81
2023/09/10 05:57:15;;;;;;;6.32;2.53;;;;;;;12.76;85.71;93520.66;5029627;28;20045;-80
2023/09/10 05:59:45;;;;;;;8.88;2.72;;;;;;;12.94;84.04;93525.03;5030242;28;20049;-80
2023/09/10 06:02:12;;;;;;;5.07;2.40;;;;;;;13.10;83.22;93524.44;5029405;28;20050;-81
2023/09/10 06:04:39;;;;;;;10.65;2.33;;;;;;;13.17;81.42;93511.47;5033049;28;20178;-80
2023/09/10 06:07:06;;;;;;;4.00;1.95;;;;;;;13.43;81.68;93530.16;5028991;28;20098;-82
2023/09/10 06:09:33;;;;;;;9.27;2.47;;;;;;;13.58;78.93;93518.69;5031255;28;20045;-82
2023/09/10 06:12:02;;;;;;;3.70;2.15;;;;;;;13.90;78.32;93528.75;5029489;28;20941;-82
2023/09/10 06:14:30;;;;;;;3.70;2.25;;;;;;;14.09;77.52;93528.66;5028872;28;20136;-79
2023/09/10 06:16:58;;;;;;;4.53;2.03;;;;;;;14.26;76.53;93532.16;5028909;28;20049;-79
2023/09/10 06:19:25;;;;;;;5.32;2.08;;;;;;;14.41;75.71;93533.50;5028863;28;20053;-79
2023/09/10 06:21:51;;;;;;;4.63;1.80;;;;;;;14.63;74.40;93538.88;5030906;28;20053;-79
2023/09/10 06:24:18;;;;;;;6.57;2.05;;;;;;;14.58;73.68;93502.59;5030387;28;20053;-79
2023/09/10 06:26:45;;;;;;;7.70;2.72;;;;;;;14.92;76.16;93533.03;5031775;28;20087;-79
2023/09/10 06:29:14;;;;;;;6.47;2.35;;;;;;;15.05;75.16;93527.59;5028698;28;20491;-78
2023/09/10 06:31:40;;;;;;;5.18;2.00;;;;;;;15.18;74.70;93533.53;5032031;28;20676;-80
2023/09/10 06:34:09;;;;;;;3.78;1.90;;;;;;;15.35;73.97;93536.97;5046550;28;20108;-80
2023/09/10 06:36:36;;;;;;;5.57;2.15;;;;;;;15.46;73.66;93539.75;5028693;28;20100;-80
2023/09/10 06:39:03;;;;;;;3.88;1.77;;;;;;;15.63;73.96;93529.41;5028608;28;20125;-80
2023/09/10 06:41:30;;;;;;;6.45;2.20;;;;;;;15.87;72.11;93534.47;5029538;28;20144;-79
2023/09/10 06:43:56;;;;;;;3.38;1.90;;;;;;;16.07;71.94;93535.84;5032076;28;20056;-79
2023/09/10 06:46:23;;;;;;;6.30;1.85;;;;;;;16.19;72.09;93520.22;5028487;28;20041;-79
2023/09/10 06:48:50;;;;;;;3.55;1.67;;;;;;;16.50;68.63;93536.19;5028698;28;20045;-79
2023/09/10 06:51:18;;;;;;;4.22;1.88;;;;;;;16.64;69.46;93521.09;5030271;28;20081;-78
2023/09/10 06:53:45;;;;;;;6.25;2.40;;;;;;;16.93;68.07;93528.72;5029243;28;20513;-79
2023/09/10 06:56:12;;;;;;;3.28;1.98;;;;;;;17.09;66.64;93532.31;5029466;28;20053;-79
2023/09/10 06:58:39;;;;;;;6.10;2.10;;;;;;;17.36;65.88;93529.75;5033156;28;20053;-80
2023/09/10 07:01:08;;;;;;;5.72;1.65;;;;;;;17.54;63.79;93529.66;5031396;28;20060;-80
2023/09/10 07:03:35;;;;;;;3.63;1.52;;;;;;;17.78;63.50;93527.56;5030684;28;20144;-80
2023/09/10 07:06:03;;;;;;;3.67;1.63;;;;;;;17.88;61.60;93508.66;5033570;28;20091;-80
2023/09/10 07:08:32;;;;;;;6.75;1.90;;;;;;;18.13;62.28;93522.91;5032505;28;20041;-79
2023/09/10 07:10:58;;;;;;;4.75;1.77;;;;;;;18.50;62.45;93527.31;5032237;28;20073;-78
2023/09/10 07:13:25;;;;;;;5.93;2.08;;;;;;;18.69;60.12;93535.50;5031887;28;20833;-78
2023/09/10 07:15:52;;;;;;;6.85;2.03;;;;;;;18.87;60.26;93524.91;5028659;28;20049;-79
2023/09/10 07:18:18;;;;;;;5.93;2.05;;;;;;;19.15;60.19;93525.56;5034583;28;20074;-78
2023/09/10 07:20:45;;;;;;;4.32;1.77;;;;;;;19.35;56.86;93525.63;5028788;28;20049;-79
2023/09/10 07:23:12;;;;;;;5.95;1.90;;;;;;;19.40;56.70;93529.28;5036309;28;20459;-79
2023/09/10 07:25:40;;;;;;;3.88;1.40;;;;;;;19.65;56.77;93527.78;5034248;28;20122;-79
2023/09/10 07:28:07;;;;;;;4.82;1.60;;;;;;;19.72;55.77;93504.88;5032699;28;20049;-79
2023/09/10 07:30:34;;;;;;;3.58;1.95;;;;;;;20.11;56.68;93527.06;5035431;28;20040;-79
2023/09/10 07:33:01;;;;;;;5.78;1.73;;;;;;;20.38;53.11;93528.59;5032966;28;20049;-80
2023/09/10 07:35:28;;;;;;;5.72;1.70;;;;;;;20.57;52.81;93526.22;5033967;28;20555;-78
2023/09/10 07:37:55;;;;;;;6.93;1.83;;;;;;;20.74;51.90;93522.53;5038216;28;20048;-79
2023/09/10 07:40:22;;;;;;;6.63;1.85;;;;;;;20.99;54.40;93518.28;5031936;28;20049;-79
2023/09/10 07:42:50;;;;;;;9.18;2.90;;;;;;;21.24;53.62;93517.41;5034991;28;20099;-78
2023/09/10 07:45:17;;;;;;;7.07;2.42;;;;;;;21.51;51.18;93508.38;5035217;28;20073;-78
2023/09/10 07:47:44;;;;;;;4.38;1.80;;;;;;;21.79;52.11;93506.13;5030817;28;20107;-79
2023/09/10 07:50:10;;;;;;;5.18;2.00;;;;;;;22.00;49.46;93513.84;5033826;28;20151;-79
2023/09/10 07:52:37;;;;;;;4.43;1.98;;;;;;;22.03;49.46;93514.06;5031997;28;20619;-78
2023/09/10 07:55:04;;;;;;;5.05;2.08;;;;;;;22.07;48.65;93508.28;5035344;28;20065;-79
2023/09/10 07:57:31;;;;;;;3.45;1.70;;;;;;;21.93;47.21;93503.69;5031602;28;20049;-77
2023/09/10 07:59:59;;;;;;;3.08;1.90;;;;;;;21.98;47.86;93503.63;5033794;28;20812;-78
2023/09/10 08:02:27;;;;;;;3.70;2.05;;;;;;;22.03;47.32;93505.44;5034033;28;20053;-78
2023/09/10 08:04:54;;;;;;;4.65;2.00;;;;;;;22.12;47.12;93503.78;5035915;28;20055;-79
2023/09/10 08:07:21;;;;;;;4.53;2.17;;;;;;;22.08;46.69;93508.00;5035941;28;20100;-79
2023/09/10 08:09:47;;;;;;;3.95;2.08;;;;;;;22.28;47.62;93501.03;5030411;28;20115;-80
2023/09/10 08:12:14;;;;;;;4.45;2.30;;;;;;;22.26;46.91;93508.41;5032656;28;20042;-79
2023/09/10 08:14:41;;;;;;;4.47;2.08;;;;;;;22.28;47.16;93503.66;5030619;28;20115;-81
2023/09/10 08:17:09;;;;;;;4.53;2.30;;;;;;;22.58;47.12;93499.22;5028626;28;20046;-78
2023/09/10 08:19:36;;;;;;;5.20;2.53;;;;;;;22.56;46.75;93501.34;5032678;28;20091;-78
2023/09/10 08:22:03;;;;;;;5.07;2.22;;;;;;;22.34;46.87;93488.69;5037588;28;20049;-80
2023/09/10 08:24:29;;;;;;;6.05;2.47;;;;;;;22.39;46.90;93504.34;5033038;28;20045;-78
2023/09/10 08:26:57;;;;;;;5.95;2.45;;;;;;;22.68;47.71;93493.88;5032239;28;20525;-77
2023/09/10 08:29:24;;;;;;;4.60;2.00;;;;;;;22.65;46.42;93504.91;5034357;28;20041;-78
2023/09/10 08:31:50;;;;;;;4.03;2.33;;;;;;;22.55;47.07;93499.78;5036371;28;20478;-77
2023/09/10 08:34:18;;;;;;;5.30;2.70;;;;;;;22.69;47.30;93499.91;5035334;28;20108;-75
2023/09/10 08:36:45;;;;;;;4.68;2.47;;;;;;;22.89;47.01;93503.34;5032398;28;20045;-77
2023/09/10 08:39:12;;;;;;;3.97;2.33;;;;;;;23.12;46.54;93500.97;5035487;28;20045;-77
2023/09/10 08:41:57;;;;;;;4.40;2.80;;;;;;;22.96;45.62;93504.56;5033105;28;20049;-77
2023/09/10 08:44:26;;;;;;;3.30;2.28;;;;;;;22.98;45.70;93504.28;5030401;28;20503;-76
2023/09/10 08:46:56;;;;;;;5.38;2.58;;;;;;;23.04;46.03;93489.25;5031600;28;20880;-77
2023/09/10 08:49:27;;;;;;;4.93;2.45;;;;;;;22.91;45.67;93507.22;5037530;28;20087;-77
2023/09/10 08:51:55;;;;;;;5.07;2.30;;;;;;;22.92;45.71;93513.25;5035427;28;20107;-77
2023/09/10 08:54:23;;;;;;;5.18;2.58;;;;;;;23.14;45.81;93504.88;5036367;28;20462;-77
2023/09/10 08:56:50;;;;;;;3.67;2.47;;;;;;;23.22;45.52;93512.13;5033202;28;20050;-77
2023/09/10 08:59:17;;;;;;;5.05;2.38;;;;;;;22.87;45.40;93506.22;5031212;28;20045;-76
2023/09/10 09:01:45;;;;;;;4.47;2.50;;;;;;;22.81;46.09;93504.72;5030608;28;20053;-76
2023/09/10 09:04:13;;;;;;;4.55;2.88;;;;;;;23.18;45.71;93511.09;5030576;28;20095;-77
2023/09/10 09:06:44;;;;;;;4.75;2.58;;;;;;;23.18;45.99;93515.56;5033141;28;20045;-76
2023/09/10 09:09:13;;;;;;;6.18;2.60;;;;;;;23.14;45.18;93514.56;5030878;28;20064;-76
2023/09/10 09:11:41;;;;;;;5.00;2.78;;;;;;;22.95;45.58;93508.25;5032244;28;20107;-76
2023/09/10 09:14:15;;;;;;;3.88;2.50;;;;;;;23.02;45.52;93513.16;5037557;28;20049;-77
2023/09/10 09:16:43;;;;;;;5.65;2.55;;;;;;;23.22;45.24;93513.94;5035118;28;20092;-77
2023/09/10 09:19:12;;;;;;;4.78;2.40;;;;;;;23.05;45.38;93512.56;5037079;28;20053;-76
2023/09/10 09:21:41;;;;;;;5.80;2.63;;;;;;;23.09;45.41;93487.38;5034775;28;20194;-75
2023/09/10 09:24:12;;;;;;;4.65;2.28;;;;;;;23.27;44.70;93518.34;5035909;28;20064;-77
2023/09/10 09:26:39;;;;;;;5.38;2.58;;;;;;;23.21;44.67;93526.28;5036833;28;20049;-76
2023/09/10 09:29:08;;;;;;;4.32;2.60;;;;;;;23.09;45.50;93515.41;5034149;28;20065;-76
2023/09/10 09:31:35;;;;;;;3.97;2.45;;;;;;;23.07;45.26;93507.84;5032591;28;20461;-76
2023/09/10 09:34:02;;;;;;;4.70;2.70;;;;;;;23.37;45.91;93505.13;5032523;28;20049;-77
2023/09/10 09:36:29;;;;;;;4.88;2.65;;;;;;;23.61;45.37;93512.94;5030355;28;21133;-76
2023/09/10 09:38:57;;;;;;;5.13;2.75;;;;;;;23.47;44.41;93496.38;5030690;28;20049;-76
2023/09/10 09:41:24;;;;;;;4.63;2.67;;;;;;;23.57;44.61;93501.47;5031210;28;20052;-77
2023/09/10 09:43:51;;;;;;;3.50;2.15;;;;;;;23.82;44.86;93501.34;5030694;28;20053;-76
2023/09/10 09:46:18;;;;;;;5.97;2.80;;;;;;;23.98;44.32;93507.91;5031402;28;20507;-76
2023/09/10 09:48:45;;;;;;;3.85;2.20;;;;;;;24.30;44.98;93502.97;5032892;28;20060;-77
2023/09/10 09:51:14;;;;;;;4.82;3.15;;;;;;;23.93;44.81;93507.25;5041288;28;20454;-76
2023/09/10 09:53:41;;;;;;;8.27;2.95;;;;;;;23.88;44.04;93489.72;5037601;28;20049;-76
2023/09/10 09:56:09;;;;;;;5.38;3.00;;;;;;;23.75;44.55;93497.25;5031582;28;20056;-76
2023/09/10 09:58:36;;;;;;;4.85;2.85;;;;;;;23.97;44.74;93492.50;5031498;28;20084;-75
2023/09/10 10:01:02;;;;;;;6.00;2.25;;;;;;;24.04;43.87;93498.13;5033325;28;20057;-76
2023/09/10 10:03:31;;;;;;;4.25;2.55;;;;;;;24.07;44.63;93489.69;5033343;28;20547;-76
2023/09/10 10:05:58;;;;;;;7.38;3.42;;;;;;;24.29;44.67;93485.66;5031754;28;20071;-77
2023/09/10 10:08:27;;;;;;;4.70;2.42;;;;;;;24.65;43.30;93494.75;5030458;28;20048;-76
2023/09/10 10:10:54;;;;;;;7.47;2.83;;;;;;;24.38;43.68;93488.41;5030375;28;20104;-75
2023/09/10 10:13:23;;;;;;;3.83;2.35;;;;;;;24.16;43.34;93484.56;5029924;28;20503;-76
2023/09/10 10:15:52;;;;;;;4.72;2.55;;;;;;;23.82;43.86;93481.16;5029982;28;20093;-76
2023/09/10 10:18:20;;;;;;;4.55;3.03;;;;;;;23.73;43.21;93490.72;5030532;28;20045;-76
2023/09/10 10:20:49;;;;;;;3.92;2.50;;;;;;;23.87;44.07;93483.69;5031504;28;20054;-76
2023/09/10 10:23:17;;;;;;;5.80;3.03;;;;;;;23.91;43.66;93483.91;5032757;28;20056;-76
2023/09/10 10:25:45;;;;;;;4.63;2.70;;;;;;;24.02;43.56;93474.00;5029254;28;20053;-75
2023/09/10 10:28:12;;;;;;;7.65;2.95;;;;;;;24.58;43.12;93474.16;5029132;28;20085;-77
2023/09/10 10:30:48;;;;;;;5.50;2.63;;;;;;;24.74;42.35;93477.25;5030285;28;20045;-76
2023/09/10 10:33:17;;;;;;;4.22;2.65;;;;;;;24.74;42.37;93471.22;5027983;28;20127;-75
2023/09/10 10:36:07;;;;;;;5.78;3.00;;;;;;;24.77;42.69;93465.38;5031644;28;20045;-76
2023/09/10 10:38:36;;;;;;;5.30;2.95;;;;;;;25.11;43.02;93471.31;5028287;28;20107;-76
2023/09/10 10:41:05;;;;;;;5.47;2.88;;;;;;;25.27;40.57;93467.28;5030188;28;20049;-76
2023/09/10 10:43:41;;;;;;;6.55;3.30;;;;;;;25.61;41.27;93465.28;5028498;28;20057;-75
2023/09/10 10:46:09;;;;;;;4.20;2.45;;;;;;;25.76;41.05;93466.78;5028318;28;20522;-75
2023/09/10 10:48:40;;;;;;;4.43;2.45;;;;;;;25.77;41.01;93472.81;5040171;28;20069;-76
2023/09/10 10:51:10;;;;;;;4.53;2.55;;;;;;;25.44;40.02;93464.03;5036787;28;20580;-76
2023/09/10 10:53:37;;;;;;;6.55;2.78;;;;;;;25.28;40.98;93473.34;5032614;28;20136;-76
2023/09/10 10:56:05;;;;;;;4.50;2.95;;;;;;;25.13;41.10;93469.19;5030469;28;20061;-76
2023/09/10 10:58:34;;;;;;;5.38;3.03;;;;;;;25.09;42.12;93454.00;5027979;28;20049;-76
2023/09/10 11:01:02;;;;;;;4.72;2.65;;;;;;;25.14;41.76;93454.97;5028640;28;20504;-75
2023/09/10 11:03:33;;;;;;;4.43;2.67;;;;;;;25.36;41.84;93433.19;5027767;28;20049;-76
2023/09/10 11:06:07;;;;;;;4.43;2.85;;;;;;;25.59;41.44;93443.78;5027416;28;20832;-76
2023/09/10 11:08:36;;;;;;;9.73;2.72;;;;;;;25.18;41.18;93450.69;5028187;28;20049;-76
2023/09/10 11:11:04;;;;;;;6.10;2.60;;;;;;;25.21;41.77;93421.16;5031838;28;20548;-76
2023/09/10 11:13:31;;;;;;;6.13;3.38;;;;;;;25.73;40.72;93439.22;5028332;28;20049;-76
2023/09/10 11:16:18;;;;;;;3.78;2.28;;;;;;;25.42;40.21;93445.16;5028009;28;20085;-76
2023/09/10 11:18:46;;;;;;;5.00;2.78;;;;;;;25.41;41.67;93437.56;5030767;28;20557;-76
2023/09/10 11:21:15;;;;;;;4.60;2.60;;;;;;;25.22;40.39;93426.13;5027816;28;20260;-76
2023/09/10 11:24:14;;;;;;;4.70;2.92;;;;;;;25.21;41.22;93426.41;5029841;28;20103;-76
2023/09/10 11:26:40;;;;;;;6.15;3.35;;;;;;;24.94;41.26;93425.41;5032597;28;20420;-76
2023/09/10 11:29:08;;;;;;;4.13;2.70;;;;;;;24.83;42.21;93422.22;5032316;28;20049;-76
2023/09/10 11:31:37;;;;;;;5.10;2.70;;;;;;;24.98;41.46;93415.84;5034225;28;20499;-76
2023/09/10 11:34:39;;;;;;;4.20;2.80;;;;;;;25.55;41.41;93416.50;5027498;28;20041;-76
2023/09/10 11:37:08;;;;;;;5.25;3.13;;;;;;;26.10;41.13;93418.06;5034185;28;20088;-76